sensor_id;sensor_type;location;lat;lon;timestamp;P1;durP1;ratioP1;P2;durP2;ratioP2
44728;SDS011;30457;53.590;9.922;2023-04-15T00:02:15;2.33;;;1.73;;
44728;SDS011;30457;53.590;9.922;2023-04-15T00:06:42;2.47;;;1.90;;
44728;SDS011;30457;53.590;9.922;2023-04-15T00:11:16;4.13;;;2.10;;
44728;SDS011;30457;53.590;9.922;2023-04-15T00:15:42;2.03;;;1.67;;
44728;SDS011;30457;53.590;9.922;2023-04-15T00:20:08;1.52;;;1.42;;
44728;SDS011;30457;53.590;9.922;2023-04-15T00:24:34;2.58;;;1.80;;
44728;SDS011;30457;53.590;9.922;2023-04-15T00:28:59;4.18;;;2.10;;
44728;SDS011;30457;53.590;9.922;2023-04-15T00:33:25;2.75;;;1.80;;
44728;SDS011;30457;53.590;9.922;2023-04-15T00:37:50;2.03;;;1.65;;
44728;SDS011;30457;53.590;9.922;2023-04-15T00:42:16;2.45;;;1.77;;
44728;SDS011;30457;53.590;9.922;2023-04-15T00:46:43;2.40;;;2.10;;
44728;SDS011;30457;53.590;9.922;2023-04-15T00:51:10;3.53;;;1.80;;
44728;SDS011;30457;53.590;9.922;2023-04-15T00:55:36;2.88;;;2.20;;
44728;SDS011;30457;53.590;9.922;2023-04-15T01:00:02;2.83;;;2.33;;
44728;SDS011;30457;53.590;9.922;2023-04-15T01:04:29;2.60;;;2.20;;
44728;SDS011;30457;53.590;9.922;2023-04-15T01:08:56;2.75;;;2.20;;
44728;SDS011;30457;53.590;9.922;2023-04-15T01:13:22;2.50;;;2.17;;
44728;SDS011;30457;53.590;9.922;2023-04-15T01:17:49;2.80;;;2.50;;
44728;SDS011;30457;53.590;9.922;2023-04-15T01:22:15;3.53;;;2.35;;
44728;SDS011;30457;53.590;9.922;2023-04-15T01:26:41;3.15;;;2.50;;
44728;SDS011;30457;53.590;9.922;2023-04-15T01:31:07;3.13;;;2.35;;
44728;SDS011;30457;53.590;9.922;2023-04-15T01:35:35;3.75;;;2.85;;
44728;SDS011;30457;53.590;9.922;2023-04-15T01:40:01;3.05;;;2.72;;
44728;SDS011;30457;53.590;9.922;2023-04-15T01:44:27;4.13;;;2.88;;
44728;SDS011;30457;53.590;9.922;2023-04-15T01:48:53;6.32;;;3.03;;
44728;SDS011;30457;53.590;9.922;2023-04-15T01:53:18;3.75;;;2.92;;
44728;SDS011;30457;53.590;9.922;2023-04-15T01:57:45;5.25;;;3.58;;
44728;SDS011;30457;53.590;9.922;2023-04-15T02:02:11;3.05;;;2.60;;
44728;SDS011;30457;53.590;9.922;2023-04-15T02:06:36;4.57;;;3.25;;
44728;SDS011;30457;53.590;9.922;2023-04-15T02:11:02;3.95;;;3.20;;
44728;SDS011;30457;53.590;9.922;2023-04-15T02:15:28;4.57;;;3.15;;
44728;SDS011;30457;53.590;9.922;2023-04-15T02:19:54;3.55;;;2.70;;
44728;SDS011;30457;53.590;9.922;2023-04-15T02:24:20;6.38;;;3.00;;
44728;SDS011;30457;53.590;9.922;2023-04-15T02:28:46;4.03;;;3.10;;
44728;SDS011;30457;53.590;9.922;2023-04-15T02:33:13;3.80;;;2.63;;
44728;SDS011;30457;53.590;9.922;2023-04-15T02:37:39;4.65;;;3.13;;
44728;SDS011;30457;53.590;9.922;2023-04-15T02:42:08;3.13;;;2.50;;
44728;SDS011;30457;53.590;9.922;2023-04-15T02:46:35;3.25;;;2.58;;
44728;SDS011;30457;53.590;9.922;2023-04-15T02:51:10;4.03;;;3.17;;
44728;SDS011;30457;53.590;9.922;2023-04-15T02:55:37;4.65;;;3.38;;
44728;SDS011;30457;53.590;9.922;2023-04-15T03:00:03;3.65;;;2.80;;
44728;SDS011;30457;53.590;9.922;2023-04-15T03:04:30;3.92;;;3.13;;
44728;SDS011;30457;53.590;9.922;2023-04-15T03:08:56;3.72;;;3.00;;
44728;SDS011;30457;53.590;9.922;2023-04-15T03:13:22;3.65;;;2.92;;
44728;SDS011;30457;53.590;9.922;2023-04-15T03:17:49;4.75;;;3.35;;
44728;SDS011;30457;53.590;9.922;2023-04-15T03:22:15;5.93;;;3.80;;
44728;SDS011;30457;53.590;9.922;2023-04-15T03:26:40;6.30;;;4.10;;
44728;SDS011;30457;53.590;9.922;2023-04-15T03:31:10;5.55;;;3.88;;
44728;SDS011;30457;53.590;9.922;2023-04-15T03:35:36;6.75;;;3.97;;
44728;SDS011;30457;53.590;9.922;2023-04-15T03:40:02;5.88;;;3.92;;
44728;SDS011;30457;53.590;9.922;2023-04-15T03:44:27;6.32;;;4.22;;
44728;SDS011;30457;53.590;9.922;2023-04-15T03:48:53;6.50;;;4.82;;
44728;SDS011;30457;53.590;9.922;2023-04-15T03:53:20;7.47;;;4.68;;
44728;SDS011;30457;53.590;9.922;2023-04-15T03:57:45;7.60;;;4.20;;
44728;SDS011;30457;53.590;9.922;2023-04-15T04:02:11;5.97;;;4.50;;
44728;SDS011;30457;53.590;9.922;2023-04-15T04:06:36;7.88;;;5.30;;
44728;SDS011;30457;53.590;9.922;2023-04-15T04:11:02;8.88;;;5.72;;
44728;SDS011;30457;53.590;9.922;2023-04-15T04:15:28;9.25;;;5.55;;
44728;SDS011;30457;53.590;9.922;2023-04-15T04:19:53;8.25;;;5.45;;
44728;SDS011;30457;53.590;9.922;2023-04-15T04:24:19;10.77;;;5.82;;
44728;SDS011;30457;53.590;9.922;2023-04-15T04:28:45;7.82;;;5.35;;
44728;SDS011;30457;53.590;9.922;2023-04-15T04:33:10;7.65;;;5.53;;
44728;SDS011;30457;53.590;9.922;2023-04-15T04:37:36;7.97;;;5.45;;
44728;SDS011;30457;53.590;9.922;2023-04-15T04:42:01;7.97;;;5.35;;
44728;SDS011;30457;53.590;9.922;2023-04-15T04:46:27;11.63;;;6.05;;
44728;SDS011;30457;53.590;9.922;2023-04-15T04:50:53;9.20;;;6.47;;
44728;SDS011;30457;53.590;9.922;2023-04-15T04:55:18;8.95;;;6.50;;
44728;SDS011;30457;53.590;9.922;2023-04-15T04:59:44;11.35;;;6.57;;
44728;SDS011;30457;53.590;9.922;2023-04-15T05:04:10;13.70;;;7.50;;
44728;SDS011;30457;53.590;9.922;2023-04-15T05:08:36;12.45;;;7.07;;
44728;SDS011;30457;53.590;9.922;2023-04-15T05:13:02;11.55;;;7.35;;
44728;SDS011;30457;53.590;9.922;2023-04-15T05:17:27;13.50;;;7.30;;
44728;SDS011;30457;53.590;9.922;2023-04-15T05:21:55;14.00;;;8.50;;
44728;SDS011;30457;53.590;9.922;2023-04-15T05:26:20;18.70;;;9.68;;
44728;SDS011;30457;53.590;9.922;2023-04-15T05:30:46;16.70;;;8.40;;
44728;SDS011;30457;53.590;9.922;2023-04-15T05:35:12;15.13;;;8.68;;
44728;SDS011;30457;53.590;9.922;2023-04-15T05:39:37;13.32;;;8.20;;
44728;SDS011;30457;53.590;9.922;2023-04-15T05:44:03;15.52;;;7.97;;
44728;SDS011;30457;53.590;9.922;2023-04-15T05:48:28;13.95;;;8.82;;
44728;SDS011;30457;53.590;9.922;2023-04-15T05:52:54;13.60;;;8.95;;
44728;SDS011;30457;53.590;9.922;2023-04-15T05:57:20;15.38;;;7.90;;
44728;SDS011;30457;53.590;9.922;2023-04-15T06:01:45;14.65;;;8.77;;
44728;SDS011;30457;53.590;9.922;2023-04-15T06:06:11;15.30;;;9.38;;
44728;SDS011;30457;53.590;9.922;2023-04-15T06:10:37;13.40;;;9.00;;
44728;SDS011;30457;53.590;9.922;2023-04-15T06:15:03;14.55;;;9.25;;
44728;SDS011;30457;53.590;9.922;2023-04-15T06:19:30;15.15;;;8.82;;
44728;SDS011;30457;53.590;9.922;2023-04-15T06:23:57;19.52;;;10.50;;
44728;SDS011;30457;53.590;9.922;2023-04-15T06:28:24;15.70;;;9.55;;
44728;SDS011;30457;53.590;9.922;2023-04-15T06:32:49;14.02;;;9.38;;
44728;SDS011;30457;53.590;9.922;2023-04-15T06:37:15;17.85;;;10.52;;
44728;SDS011;30457;53.590;9.922;2023-04-15T06:41:40;18.02;;;11.38;;
44728;SDS011;30457;53.590;9.922;2023-04-15T06:46:06;20.02;;;12.20;;
44728;SDS011;30457;53.590;9.922;2023-04-15T06:50:32;17.90;;;11.02;;
44728;SDS011;30457;53.590;9.922;2023-04-15T06:54:58;21.92;;;12.00;;
44728;SDS011;30457;53.590;9.922;2023-04-15T06:59:23;21.65;;;11.70;;
44728;SDS011;30457;53.590;9.922;2023-04-15T07:03:49;19.63;;;11.65;;
44728;SDS011;30457;53.590;9.922;2023-04-15T07:08:15;20.58;;;12.25;;
44728;SDS011;30457;53.590;9.922;2023-04-15T07:12:40;21.95;;;12.52;;
44728;SDS011;30457;53.590;9.922;2023-04-15T07:17:06;20.25;;;12.75;;
44728;SDS011;30457;53.590;9.922;2023-04-15T07:21:32;19.48;;;12.15;;
44728;SDS011;30457;53.590;9.922;2023-04-15T07:25:58;24.05;;;13.00;;
44728;SDS011;30457;53.590;9.922;2023-04-15T07:30:24;26.17;;;15.07;;
44728;SDS011;30457;53.590;9.922;2023-04-15T07:34:49;22.80;;;12.27;;
44728;SDS011;30457;53.590;9.922;2023-04-15T07:39:15;23.48;;;13.18;;
44728;SDS011;30457;53.590;9.922;2023-04-15T07:43:41;25.27;;;14.15;;
44728;SDS011;30457;53.590;9.922;2023-04-15T07:48:07;23.55;;;13.98;;
44728;SDS011;30457;53.590;9.922;2023-04-15T07:52:33;29.63;;;14.95;;
44728;SDS011;30457;53.590;9.922;2023-04-15T07:57:03;23.83;;;13.52;;
44728;SDS011;30457;53.590;9.922;2023-04-15T08:01:29;20.92;;;12.82;;
44728;SDS011;30457;53.590;9.922;2023-04-15T08:05:55;24.55;;;13.68;;
44728;SDS011;30457;53.590;9.922;2023-04-15T08:10:21;24.80;;;14.02;;
44728;SDS011;30457;53.590;9.922;2023-04-15T08:14:47;27.25;;;14.88;;
44728;SDS011;30457;53.590;9.922;2023-04-15T08:19:13;25.02;;;14.32;;
44728;SDS011;30457;53.590;9.922;2023-04-15T08:23:39;25.80;;;14.30;;
44728;SDS011;30457;53.590;9.922;2023-04-15T08:28:06;26.40;;;15.40;;
44728;SDS011;30457;53.590;9.922;2023-04-15T08:32:33;29.23;;;15.55;;
44728;SDS011;30457;53.590;9.922;2023-04-15T08:36:58;29.80;;;14.25;;
44728;SDS011;30457;53.590;9.922;2023-04-15T08:41:24;26.98;;;14.48;;
44728;SDS011;30457;53.590;9.922;2023-04-15T08:45:51;25.75;;;14.82;;
44728;SDS011;30457;53.590;9.922;2023-04-15T08:50:17;26.17;;;13.95;;
44728;SDS011;30457;53.590;9.922;2023-04-15T08:54:44;22.90;;;14.07;;
44728;SDS011;30457;53.590;9.922;2023-04-15T08:59:09;24.90;;;14.43;;
44728;SDS011;30457;53.590;9.922;2023-04-15T09:03:35;25.58;;;14.23;;
44728;SDS011;30457;53.590;9.922;2023-04-15T09:08:01;28.17;;;15.77;;
44728;SDS011;30457;53.590;9.922;2023-04-15T09:12:28;27.63;;;15.57;;
44728;SDS011;30457;53.590;9.922;2023-04-15T09:16:57;31.67;;;17.38;;
44728;SDS011;30457;53.590;9.922;2023-04-15T09:21:27;25.13;;;14.40;;
44728;SDS011;30457;53.590;9.922;2023-04-15T09:25:56;29.40;;;15.15;;
44728;SDS011;30457;53.590;9.922;2023-04-15T09:30:22;30.70;;;16.08;;
44728;SDS011;30457;53.590;9.922;2023-04-15T09:34:48;36.30;;;15.80;;
44728;SDS011;30457;53.590;9.922;2023-04-15T09:39:13;27.77;;;15.30;;
44728;SDS011;30457;53.590;9.922;2023-04-15T09:43:39;28.77;;;16.58;;
44728;SDS011;30457;53.590;9.922;2023-04-15T09:48:21;30.60;;;15.90;;
44728;SDS011;30457;53.590;9.922;2023-04-15T09:52:55;26.88;;;15.38;;
44728;SDS011;30457;53.590;9.922;2023-04-15T09:57:20;26.10;;;13.95;;
44728;SDS011;30457;53.590;9.922;2023-04-15T10:01:46;29.17;;;14.52;;
44728;SDS011;30457;53.590;9.922;2023-04-15T10:06:11;25.45;;;15.50;;
44728;SDS011;30457;53.590;9.922;2023-04-15T10:10:39;23.45;;;13.70;;
44728;SDS011;30457;53.590;9.922;2023-04-15T10:15:04;24.65;;;13.73;;
44728;SDS011;30457;53.590;9.922;2023-04-15T10:19:32;28.85;;;14.32;;
44728;SDS011;30457;53.590;9.922;2023-04-15T10:24:01;25.00;;;13.77;;
44728;SDS011;30457;53.590;9.922;2023-04-15T10:28:28;29.13;;;14.23;;
44728;SDS011;30457;53.590;9.922;2023-04-15T10:32:54;20.50;;;12.82;;
44728;SDS011;30457;53.590;9.922;2023-04-15T10:37:21;22.55;;;13.32;;
44728;SDS011;30457;53.590;9.922;2023-04-15T10:42:07;19.77;;;12.23;;
44728;SDS011;30457;53.590;9.922;2023-04-15T10:46:43;22.20;;;12.75;;
44728;SDS011;30457;53.590;9.922;2023-04-15T10:51:09;27.52;;;13.98;;
44728;SDS011;30457;53.590;9.922;2023-04-15T10:55:38;20.27;;;12.40;;
44728;SDS011;30457;53.590;9.922;2023-04-15T11:04:51;18.15;;;11.48;;
44728;SDS011;30457;53.590;9.922;2023-04-15T11:09:30;15.57;;;10.93;;
44728;SDS011;30457;53.590;9.922;2023-04-15T11:13:57;13.90;;;9.25;;
44728;SDS011;30457;53.590;9.922;2023-04-15T11:18:24;16.95;;;10.95;;
44728;SDS011;30457;53.590;9.922;2023-04-15T11:22:51;15.48;;;9.32;;
44728;SDS011;30457;53.590;9.922;2023-04-15T11:27:23;11.85;;;8.32;;
44728;SDS011;30457;53.590;9.922;2023-04-15T11:31:49;9.73;;;7.82;;
44728;SDS011;30457;53.590;9.922;2023-04-15T11:36:15;11.63;;;7.35;;
44728;SDS011;30457;53.590;9.922;2023-04-15T11:40:41;12.50;;;8.48;;
44728;SDS011;30457;53.590;9.922;2023-04-15T11:45:11;10.90;;;7.00;;
44728;SDS011;30457;53.590;9.922;2023-04-15T11:49:39;8.10;;;6.25;;
44728;SDS011;30457;53.590;9.922;2023-04-15T11:54:05;9.50;;;6.28;;
44728;SDS011;30457;53.590;9.922;2023-04-15T11:58:32;10.23;;;6.22;;
44728;SDS011;30457;53.590;9.922;2023-04-15T12:12:25;8.20;;;6.10;;
44728;SDS011;30457;53.590;9.922;2023-04-15T12:16:53;7.35;;;6.07;;
44728;SDS011;30457;53.590;9.922;2023-04-15T12:21:22;8.95;;;7.07;;
44728;SDS011;30457;53.590;9.922;2023-04-15T12:25:51;10.48;;;6.35;;
44728;SDS011;30457;53.590;9.922;2023-04-15T12:30:17;8.82;;;6.82;;
44728;SDS011;30457;53.590;9.922;2023-04-15T12:34:43;10.43;;;7.00;;
44728;SDS011;30457;53.590;9.922;2023-04-15T12:39:16;8.52;;;6.70;;
44728;SDS011;30457;53.590;9.922;2023-04-15T12:43:44;10.43;;;6.43;;
44728;SDS011;30457;53.590;9.922;2023-04-15T12:48:13;10.32;;;6.65;;
44728;SDS011;30457;53.590;9.922;2023-04-15T12:52:38;8.25;;;5.60;;
44728;SDS011;30457;53.590;9.922;2023-04-15T12:57:04;9.32;;;6.30;;
44728;SDS011;30457;53.590;9.922;2023-04-15T13:01:30;8.98;;;6.75;;
44728;SDS011;30457;53.590;9.922;2023-04-15T13:05:56;8.88;;;6.70;;
44728;SDS011;30457;53.590;9.922;2023-04-15T13:10:21;9.15;;;6.95;;
44728;SDS011;30457;53.590;9.922;2023-04-15T13:14:47;10.07;;;7.40;;
44728;SDS011;30457;53.590;9.922;2023-04-15T13:19:13;11.25;;;7.35;;
44728;SDS011;30457;53.590;9.922;2023-04-15T13:23:40;9.27;;;7.25;;
44728;SDS011;30457;53.590;9.922;2023-04-15T13:28:05;9.00;;;6.22;;
44728;SDS011;30457;53.590;9.922;2023-04-15T13:32:31;9.00;;;6.57;;
44728;SDS011;30457;53.590;9.922;2023-04-15T13:36:57;7.47;;;5.82;;
44728;SDS011;30457;53.590;9.922;2023-04-15T13:41:22;11.10;;;6.38;;
44728;SDS011;30457;53.590;9.922;2023-04-15T13:45:48;10.20;;;7.75;;
44728;SDS011;30457;53.590;9.922;2023-04-15T13:50:14;7.53;;;6.03;;
44728;SDS011;30457;53.590;9.922;2023-04-15T13:54:39;7.65;;;6.63;;
44728;SDS011;30457;53.590;9.922;2023-04-15T13:59:05;9.88;;;5.93;;
44728;SDS011;30457;53.590;9.922;2023-04-15T14:03:35;8.68;;;6.40;;
44728;SDS011;30457;53.590;9.922;2023-04-15T14:08:01;6.68;;;5.38;;
44728;SDS011;30457;53.590;9.922;2023-04-15T14:12:27;7.78;;;6.15;;
44728;SDS011;30457;53.590;9.922;2023-04-15T14:16:53;8.23;;;5.78;;
44728;SDS011;30457;53.590;9.922;2023-04-15T14:21:20;9.40;;;5.60;;
44728;SDS011;30457;53.590;9.922;2023-04-15T14:25:45;8.95;;;6.30;;
44728;SDS011;30457;53.590;9.922;2023-04-15T14:30:11;8.38;;;5.78;;
44728;SDS011;30457;53.590;9.922;2023-04-15T14:34:37;6.85;;;5.72;;
44728;SDS011;30457;53.590;9.922;2023-04-15T14:39:02;8.48;;;6.25;;
44728;SDS011;30457;53.590;9.922;2023-04-15T14:43:28;8.13;;;5.50;;
44728;SDS011;30457;53.590;9.922;2023-04-15T14:47:54;9.23;;;6.03;;
44728;SDS011;30457;53.590;9.922;2023-04-15T14:52:20;7.15;;;5.80;;
44728;SDS011;30457;53.590;9.922;2023-04-15T14:56:46;11.77;;;5.85;;
44728;SDS011;30457;53.590;9.922;2023-04-15T15:01:11;8.07;;;5.50;;
44728;SDS011;30457;53.590;9.922;2023-04-15T15:05:37;7.93;;;6.47;;
44728;SDS011;30457;53.590;9.922;2023-04-15T15:10:06;10.13;;;6.65;;
44728;SDS011;30457;53.590;9.922;2023-04-15T15:14:32;7.47;;;5.85;;
44728;SDS011;30457;53.590;9.922;2023-04-15T15:18:58;9.50;;;5.55;;
44728;SDS011;30457;53.590;9.922;2023-04-15T15:23:23;9.10;;;6.60;;
44728;SDS011;30457;53.590;9.922;2023-04-15T15:27:49;8.40;;;6.07;;
44728;SDS011;30457;53.590;9.922;2023-04-15T15:32:15;7.07;;;6.18;;
44728;SDS011;30457;53.590;9.922;2023-04-15T15:36:41;6.30;;;5.35;;
44728;SDS011;30457;53.590;9.922;2023-04-15T15:41:06;14.68;;;7.47;;
44728;SDS011;30457;53.590;9.922;2023-04-15T15:45:32;21.33;;;12.77;;
44728;SDS011;30457;53.590;9.922;2023-04-15T15:49:59;26.50;;;14.70;;
44728;SDS011;30457;53.590;9.922;2023-04-15T15:54:25;16.38;;;11.25;;
44728;SDS011;30457;53.590;9.922;2023-04-15T15:58:51;13.95;;;8.25;;
44728;SDS011;30457;53.590;9.922;2023-04-15T16:03:16;7.80;;;6.30;;
44728;SDS011;30457;53.590;9.922;2023-04-15T16:07:42;9.80;;;6.75;;
44728;SDS011;30457;53.590;9.922;2023-04-15T16:12:08;11.95;;;6.95;;
44728;SDS011;30457;53.590;9.922;2023-04-15T16:16:33;9.00;;;7.00;;
44728;SDS011;30457;53.590;9.922;2023-04-15T16:20:59;7.68;;;6.13;;
44728;SDS011;30457;53.590;9.922;2023-04-15T16:25:24;11.32;;;7.55;;
44728;SDS011;30457;53.590;9.922;2023-04-15T16:29:50;8.57;;;6.65;;
44728;SDS011;30457;53.590;9.922;2023-04-15T16:34:16;9.90;;;7.72;;
44728;SDS011;30457;53.590;9.922;2023-04-15T16:38:42;7.45;;;5.88;;
44728;SDS011;30457;53.590;9.922;2023-04-15T16:43:10;10.10;;;6.93;;
44728;SDS011;30457;53.590;9.922;2023-04-15T16:47:35;10.45;;;6.78;;
44728;SDS011;30457;53.590;9.922;2023-04-15T16:52:01;10.00;;;7.25;;
44728;SDS011;30457;53.590;9.922;2023-04-15T16:56:27;13.23;;;8.07;;
44728;SDS011;30457;53.590;9.922;2023-04-15T17:00:53;10.45;;;7.38;;
44728;SDS011;30457;53.590;9.922;2023-04-15T17:05:19;12.32;;;8.43;;
44728;SDS011;30457;53.590;9.922;2023-04-15T17:09:44;10.98;;;8.10;;
44728;SDS011;30457;53.590;9.922;2023-04-15T17:14:10;11.40;;;8.65;;
44728;SDS011;30457;53.590;9.922;2023-04-15T17:18:36;12.32;;;8.82;;
44728;SDS011;30457;53.590;9.922;2023-04-15T17:23:02;15.13;;;9.15;;
44728;SDS011;30457;53.590;9.922;2023-04-15T17:27:28;11.13;;;9.15;;
44728;SDS011;30457;53.590;9.922;2023-04-15T17:31:54;13.18;;;8.90;;
44728;SDS011;30457;53.590;9.922;2023-04-15T17:36:21;13.02;;;9.13;;
44728;SDS011;30457;53.590;9.922;2023-04-15T17:40:47;11.68;;;8.15;;
44728;SDS011;30457;53.590;9.922;2023-04-15T17:45:12;13.63;;;9.65;;
44728;SDS011;30457;53.590;9.922;2023-04-15T17:49:38;13.30;;;9.70;;
44728;SDS011;30457;53.590;9.922;2023-04-15T17:54:03;15.13;;;9.90;;
44728;SDS011;30457;53.590;9.922;2023-04-15T17:58:30;14.40;;;10.75;;
44728;SDS011;30457;53.590;9.922;2023-04-15T18:02:55;13.95;;;9.95;;
44728;SDS011;30457;53.590;9.922;2023-04-15T18:07:21;15.75;;;9.55;;
44728;SDS011;30457;53.590;9.922;2023-04-15T18:11:46;17.65;;;9.73;;
44728;SDS011;30457;53.590;9.922;2023-04-15T18:16:12;18.08;;;10.90;;
44728;SDS011;30457;53.590;9.922;2023-04-15T18:20:38;13.48;;;9.75;;
44728;SDS011;30457;53.590;9.922;2023-04-15T18:25:03;16.90;;;11.10;;
44728;SDS011;30457;53.590;9.922;2023-04-15T18:29:30;15.40;;;9.82;;
44728;SDS011;30457;53.590;9.922;2023-04-15T18:33:55;12.95;;;9.18;;
44728;SDS011;30457;53.590;9.922;2023-04-15T18:38:21;16.58;;;10.18;;
44728;SDS011;30457;53.590;9.922;2023-04-15T18:42:47;16.65;;;10.30;;
44728;SDS011;30457;53.590;9.922;2023-04-15T18:47:12;14.60;;;10.48;;
44728;SDS011;30457;53.590;9.922;2023-04-15T18:51:38;13.20;;;9.82;;
44728;SDS011;30457;53.590;9.922;2023-04-15T18:56:04;16.27;;;10.45;;
44728;SDS011;30457;53.590;9.922;2023-04-15T19:00:30;18.48;;;10.65;;
44728;SDS011;30457;53.590;9.922;2023-04-15T19:04:56;15.65;;;10.77;;
44728;SDS011;30457;53.590;9.922;2023-04-15T19:09:21;16.15;;;10.55;;
44728;SDS011;30457;53.590;9.922;2023-04-15T19:13:47;15.93;;;10.85;;
44728;SDS011;30457;53.590;9.922;2023-04-15T19:18:13;16.52;;;10.52;;
44728;SDS011;30457;53.590;9.922;2023-04-15T19:22:38;17.95;;;10.90;;
44728;SDS011;30457;53.590;9.922;2023-04-15T19:27:04;16.58;;;9.48;;
44728;SDS011;30457;53.590;9.922;2023-04-15T19:31:30;14.60;;;8.73;;
44728;SDS011;30457;53.590;9.922;2023-04-15T19:36:04;16.63;;;9.40;;
44728;SDS011;30457;53.590;9.922;2023-04-15T19:40:31;13.77;;;9.10;;
44728;SDS011;30457;53.590;9.922;2023-04-15T19:44:56;15.48;;;9.95;;
44728;SDS011;30457;53.590;9.922;2023-04-15T19:49:22;20.70;;;10.75;;
44728;SDS011;30457;53.590;9.922;2023-04-15T19:53:50;15.23;;;9.82;;
44728;SDS011;30457;53.590;9.922;2023-04-15T19:58:17;14.70;;;9.07;;
44728;SDS011;30457;53.590;9.922;2023-04-15T20:02:43;17.95;;;10.70;;
44728;SDS011;30457;53.590;9.922;2023-04-15T20:07:09;12.43;;;8.65;;
44728;SDS011;30457;53.590;9.922;2023-04-15T20:11:34;12.15;;;9.27;;
44728;SDS011;30457;53.590;9.922;2023-04-15T20:16:00;13.38;;;8.75;;
44728;SDS011;30457;53.590;9.922;2023-04-15T20:20:25;14.27;;;10.40;;
44728;SDS011;30457;53.590;9.922;2023-04-15T20:24:51;15.13;;;8.73;;
44728;SDS011;30457;53.590;9.922;2023-04-15T20:29:17;16.42;;;10.40;;
44728;SDS011;30457;53.590;9.922;2023-04-15T20:33:42;16.77;;;7.97;;
44728;SDS011;30457;53.590;9.922;2023-04-15T20:38:08;14.60;;;8.98;;
44728;SDS011;30457;53.590;9.922;2023-04-15T20:42:39;17.42;;;9.88;;
44728;SDS011;30457;53.590;9.922;2023-04-15T20:47:07;15.45;;;9.02;;
44728;SDS011;30457;53.590;9.922;2023-04-15T20:51:32;13.75;;;9.18;;
44728;SDS011;30457;53.590;9.922;2023-04-15T20:56:01;14.68;;;9.85;;
44728;SDS011;30457;53.590;9.922;2023-04-15T21:00:27;16.48;;;8.85;;
44728;SDS011;30457;53.590;9.922;2023-04-15T21:04:53;15.13;;;8.95;;
44728;SDS011;30457;53.590;9.922;2023-04-15T21:09:18;15.98;;;8.90;;
44728;SDS011;30457;53.590;9.922;2023-04-15T21:13:44;16.10;;;9.85;;
44728;SDS011;30457;53.590;9.922;2023-04-15T21:18:10;14.38;;;9.57;;
44728;SDS011;30457;53.590;9.922;2023-04-15T21:22:35;16.00;;;9.20;;
44728;SDS011;30457;53.590;9.922;2023-04-15T21:27:01;16.77;;;9.32;;
44728;SDS011;30457;53.590;9.922;2023-04-15T21:31:27;16.48;;;9.57;;
44728;SDS011;30457;53.590;9.922;2023-04-15T21:35:52;19.75;;;10.68;;
44728;SDS011;30457;53.590;9.922;2023-04-15T21:40:18;22.05;;;11.60;;
44728;SDS011;30457;53.590;9.922;2023-04-15T21:44:44;22.35;;;10.52;;
44728;SDS011;30457;53.590;9.922;2023-04-15T21:49:09;16.30;;;9.85;;
44728;SDS011;30457;53.590;9.922;2023-04-15T21:53:35;15.85;;;9.60;;
44728;SDS011;30457;53.590;9.922;2023-04-15T21:58:00;15.10;;;10.38;;
44728;SDS011;30457;53.590;9.922;2023-04-15T22:02:26;18.27;;;9.68;;
44728;SDS011;30457;53.590;9.922;2023-04-15T22:06:55;14.32;;;9.88;;
44728;SDS011;30457;53.590;9.922;2023-04-15T22:11:25;15.15;;;9.57;;
44728;SDS011;30457;53.590;9.922;2023-04-15T22:15:51;15.57;;;9.20;;
44728;SDS011;30457;53.590;9.922;2023-04-15T22:20:16;16.77;;;9.60;;
44728;SDS011;30457;53.590;9.922;2023-04-15T22:24:42;14.55;;;9.82;;
44728;SDS011;30457;53.590;9.922;2023-04-15T22:29:08;14.80;;;9.57;;
44728;SDS011;30457;53.590;9.922;2023-04-15T22:33:34;16.90;;;9.55;;
44728;SDS011;30457;53.590;9.922;2023-04-15T22:38:00;14.73;;;9.40;;
44728;SDS011;30457;53.590;9.922;2023-04-15T22:42:26;16.65;;;9.20;;
44728;SDS011;30457;53.590;9.922;2023-04-15T22:46:51;13.88;;;9.88;;
44728;SDS011;30457;53.590;9.922;2023-04-15T22:51:20;15.45;;;9.48;;
44728;SDS011;30457;53.590;9.922;2023-04-15T22:55:47;15.15;;;10.80;;
44728;SDS011;30457;53.590;9.922;2023-04-15T23:00:13;19.80;;;9.88;;
44728;SDS011;30457;53.590;9.922;2023-04-15T23:04:38;14.52;;;10.02;;
44728;SDS011;30457;53.590;9.922;2023-04-15T23:09:04;19.77;;;10.52;;
44728;SDS011;30457;53.590;9.922;2023-04-15T23:13:29;16.20;;;10.82;;
44728;SDS011;30457;53.590;9.922;2023-04-15T23:17:55;17.98;;;10.68;;
44728;SDS011;30457;53.590;9.922;2023-04-15T23:22:21;18.48;;;10.05;;
44728;SDS011;30457;53.590;9.922;2023-04-15T23:26:46;17.08;;;10.68;;
44728;SDS011;30457;53.590;9.922;2023-04-15T23:31:12;19.35;;;11.85;;
44728;SDS011;30457;53.590;9.922;2023-04-15T23:35:37;19.05;;;11.15;;
44728;SDS011;30457;53.590;9.922;2023-04-15T23:40:03;17.85;;;10.38;;
44728;SDS011;30457;53.590;9.922;2023-04-15T23:44:29;18.58;;;11.73;;
44728;SDS011;30457;53.590;9.922;2023-04-15T23:48:55;18.92;;;10.82;;
44728;SDS011;30457;53.590;9.922;2023-04-15T23:53:20;23.25;;;11.32;;
44728;SDS011;30457;53.590;9.922;2023-04-15T23:57:46;18.77;;;9.52;;
